Pilot_jp_virden — WD14560 — position and weather

sailwx.info

Track history (hours):
 
Tides and Currents Weather Stations Pressure Air Temp Water Temp Dewpoint Dewpoint Depression Visibility Wind Speed Wind Dir Waves Ship Positions

Pilot_jp_virden

Last reported at 2018-Jul-20 02:51 UTC. Time now 2018-Jul-20 03:06 UTC.
Position N 38°47' W 075°07'.

Length 16 m.

Type: Pilot. MMSI: 367699890.

Date/timePositionNaut miles runAvg speedWind from/ knotsBaromVisibWave heightAir tempDewpointWater temp
2018-Jul-20 02:51N 38°47' W 075°07'1 0.6
2018-Jul-20 00:19N 38°48' W 075°06'2 5.3
2018-Jul-19 23:59N 38°48' W 075°04'2 0.1
2018-Jul-19 07:28N 38°50' W 075°04'2 0.5
2018-Jul-19 03:21N 38°49' W 075°06'1 1.7
2018-Jul-19 02:54N 38°48' W 075°07'1 2.6
2018-Jul-19 02:23N 38°47' W 075°07'822.2
2018-Jul-19 02:00N 38°54' W 075°02'0 0.5
2018-Jul-19 01:30N 38°55' W 075°02'714.6
2018-Jul-19 01:00N 38°47' W 075°03'4 0.2
2018-Jul-18 08:53N 38°47' W 075°07'0 0.0
2018-Jul-18 08:25N 38°47' W 075°07'0 0.0
2018-Jul-18 06:08N 38°47' W 075°07'0 0.0
2018-Jul-18 05:58N 38°47' W 075°07'0 0.0
2018-Jul-18 05:28N 38°47' W 075°07'0 0.0
2018-Jul-18 04:46N 38°47' W 075°07'0 0.0
2018-Jul-17 11:45N 38°47' W 075°07'3 1.2
2018-Jul-17 08:56N 38°49' W 075°04'3 0.5
2018-Jul-17 03:34N 38°52' W 075°06'112.8
2018-Jul-17 03:30N 38°53' W 075°05'6 0.4
2018-Jul-16 12:01N 38°47' W 075°07'0 0.0
2018-Jul-16 11:58N 38°47' W 075°07'0 0.0
2018-Jul-16 11:30N 38°47' W 075°07'0 0.0
2018-Jul-16 10:58N 38°47' W 075°07'0 0.0
2018-Jul-16 10:30N 38°47' W 075°07'0 0.0
2018-Jul-16 09:54N 38°47' W 075°07'0 0.0
2018-Jul-16 07:57N 38°47' W 075°07'0 0.0
2018-Jul-15 13:08N 38°47' W 075°07'0 0.1
2018-Jul-15 13:00N 38°47' W 075°07'0 0.0
2018-Jul-15 12:31N 38°47' W 075°07'0 0.0
2018-Jul-15 12:00N 38°47' W 075°07'0 0.0
2018-Jul-15 11:31N 38°47' W 075°07'0 0.0
2018-Jul-15 11:01N 38°47' W 075°07'0 0.0
2018-Jul-15 10:04N 38°47' W 075°07'0 0.1
2018-Jul-15 09:59N 38°47' W 075°07'0 0.0
2018-Jul-15 09:29N 38°47' W 075°07'0 0.0
2018-Jul-15 07:36N 38°47' W 075°07'0 0.1
2018-Jul-15 07:30N 38°47' W 075°07'0 0.0
2018-Jul-15 06:59N 38°47' W 075°07'0 0.0
2018-Jul-15 06:30N 38°47' W 075°07'0 0.0
2018-Jul-15 06:00N 38°47' W 075°07'0 0.0
2018-Jul-15 05:30N 38°47' W 075°07'0 0.0
2018-Jul-15 04:59N 38°47' W 075°07'0 0.0
2018-Jul-15 04:30N 38°47' W 075°07'0 0.0
2018-Jul-15 04:00N 38°47' W 075°07'0 0.0
2018-Jul-15 03:29N 38°47' W 075°07'0 0.0
2018-Jul-15 02:47N 38°47' W 075°07'7 1.1
2018-Jul-14 20:30N 38°54' W 075°09'1224.2
2018-Jul-14 20:01N 39°05' W 075°14'1224.9
2018-Jul-14 19:31N 39°16' W 075°21'1224.4
2018-Jul-14 19:01N 39°25' W 075°31'1122.6
2018-Jul-14 18:31N 39°36' W 075°34'1020.8
2018-Jul-14 18:00N 39°46' W 075°29'1020.1
2018-Jul-14 17:30N 39°51' W 075°17'917.0
2018-Jul-14 17:00N 39°56' W 075°08'0 0.7
2018-Jul-14 16:30N 39°56' W 075°08'4 8.1
2018-Jul-14 16:00N 39°53' W 075°12'2 5.0
2018-Jul-14 15:30N 39°53' W 075°08'3 5.8
2018-Jul-14 15:00N 39°56' W 075°08'0 0.0
2018-Jul-14 14:30N 39°56' W 075°09'0 0.0
2018-Jul-14 13:30N 39°56' W 075°09'0 0.0
2018-Jul-14 13:00N 39°56' W 075°08'0 0.0
2018-Jul-14 12:30N 39°56' W 075°08'0 0.0
2018-Jul-14 12:00N 39°56' W 075°09'0 0.0
2018-Jul-14 11:30N 39°56' W 075°08'0 0.0
2018-Jul-14 11:00N 39°56' W 075°08'0 0.0
2018-Jul-14 10:30N 39°56' W 075°08'0 0.0
2018-Jul-14 10:01N 39°56' W 075°08'0 0.0
2018-Jul-14 09:30N 39°56' W 075°08'0 0.0
2018-Jul-14 09:01N 39°56' W 075°09'0 0.0
2018-Jul-14 08:31N 39°56' W 075°08'0 0.0
2018-Jul-14 08:00N 39°56' W 075°08'0 0.0
2018-Jul-14 07:30N 39°56' W 075°08'0 0.0
2018-Jul-14 07:00N 39°56' W 075°08'0 0.0
2018-Jul-14 06:30N 39°56' W 075°08'0 0.0
2018-Jul-14 06:01N 39°56' W 075°09'0 0.0
2018-Jul-14 05:30N 39°56' W 075°08'0 0.0
2018-Jul-14 05:00N 39°56' W 075°08'0 0.0
2018-Jul-14 04:30N 39°56' W 075°08'0 0.0
2018-Jul-14 04:00N 39°56' W 075°08'0 0.0
2018-Jul-14 03:31N 39°56' W 075°08'0 0.0
2018-Jul-14 03:01N 39°56' W 075°08'0 0.0
2018-Jul-14 02:30N 39°56' W 075°08'0 0.0
2018-Jul-14 02:00N 39°56' W 075°08'0 0.0
2018-Jul-14 01:30N 39°56' W 075°08'0 0.0
2018-Jul-14 01:00N 39°56' W 075°09'0 0.0
2018-Jul-14 00:30N 39°56' W 075°09'0 0.0
2018-Jul-14 00:00N 39°56' W 075°08'0 0.0
2018-Jul-13 23:31N 39°56' W 075°09'0 0.0
2018-Jul-13 23:00N 39°56' W 075°09'0 0.0
2018-Jul-13 22:30N 39°56' W 075°09'0 0.0
2018-Jul-13 22:00N 39°56' W 075°09'0 0.0
2018-Jul-13 21:30N 39°56' W 075°09'0 0.0
2018-Jul-13 21:00N 39°56' W 075°09'0 0.0
2018-Jul-13 20:30N 39°56' W 075°09'0 0.0
2018-Jul-13 20:00N 39°56' W 075°09'0 0.0
2018-Jul-13 19:30N 39°56' W 075°09'0 0.0
2018-Jul-13 19:00N 39°56' W 075°09'0 0.0
2018-Jul-13 18:30N 39°56' W 075°09'0 0.0
2018-Jul-13 18:00N 39°56' W 075°09'0 0.0
2018-Jul-13 17:30N 39°56' W 075°09'0 0.0
2018-Jul-13 17:00N 39°56' W 075°08'0 0.0
2018-Jul-13 16:30N 39°56' W 075°09'4 8.3
2018-Jul-13 16:00N 39°53' W 075°12'1020.0
2018-Jul-13 15:30N 39°49' W 075°24'1121.8
2018-Jul-13 15:00N 39°40' W 075°32'2322.7
2018-Jul-13 14:00N 39°18' W 075°24'1224.3
2018-Jul-13 13:30N 39°08' W 075°16'1224.3
2018-Jul-13 13:00N 38°56' W 075°11'917.4
2018-Jul-13 12:30N 38°48' W 075°10'0 0.0
2018-Jul-13 12:00N 38°48' W 075°10'0 0.0
2018-Jul-13 11:29N 38°48' W 075°10'0 0.0
2018-Jul-13 11:00N 38°48' W 075°10'0 0.0
2018-Jul-13 10:30N 38°48' W 075°10'0 0.0
2018-Jul-13 10:00N 38°48' W 075°10'0 0.0
2018-Jul-13 09:31N 38°48' W 075°10'0 0.0
2018-Jul-13 09:00N 38°48' W 075°10'0 0.0
2018-Jul-13 08:30N 38°48' W 075°10'0 0.0
2018-Jul-13 08:00N 38°48' W 075°10'0 0.0
2018-Jul-13 07:30N 38°48' W 075°10'0 0.0
2018-Jul-13 07:00N 38°48' W 075°10'0 0.0
2018-Jul-13 06:27N 38°48' W 075°10'0 0.0
2018-Jul-13 06:00N 38°48' W 075°10'0 0.0
2018-Jul-13 05:30N 38°48' W 075°10'0 0.0
2018-Jul-13 05:00N 38°48' W 075°10'0 0.0
2018-Jul-13 04:30N 38°48' W 075°10'0 0.0
2018-Jul-13 04:00N 38°48' W 075°10'0 0.0
2018-Jul-13 03:30N 38°48' W 075°10'0 0.0
2018-Jul-13 03:00N 38°48' W 075°10'0 0.0
2018-Jul-13 02:31N 38°48' W 075°10'0 0.0
2018-Jul-13 02:00N 38°48' W 075°10'0 0.0
2018-Jul-13 01:30N 38°48' W 075°10'0 0.0
2018-Jul-13 00:57N 38°48' W 075°10'0 0.0
2018-Jul-13 00:30N 38°48' W 075°10'0 0.0
2018-Jul-12 23:55N 38°48' W 075°10'2 0.1
2018-Jul-11 13:09N 38°47' W 075°07'0 0.1
2018-Jul-11 12:59N 38°47' W 075°07'0 0.0
2018-Jul-11 12:30N 38°47' W 075°07'0 0.0
2018-Jul-11 12:01N 38°47' W 075°07'0 0.0
2018-Jul-11 10:39N 38°47' W 075°07'0 0.0
2018-Jul-11 08:18N 38°47' W 075°07'0 0.0
2018-Jul-11 07:52N 38°47' W 075°07'0 0.0
2018-Jul-11 07:29N 38°47' W 075°07'0 0.0
2018-Jul-11 07:00N 38°47' W 075°07'0 0.0
2018-Jul-11 06:29N 38°47' W 075°07'0 0.0
2018-Jul-11 06:00N 38°47' W 075°07'0 0.0
2018-Jul-11 05:30N 38°47' W 075°07'0 0.0
2018-Jul-11 05:00N 38°47' W 075°07'0 0.0
2018-Jul-11 04:30N 38°47' W 075°07'0 0.0
2018-Jul-11 04:00N 38°47' W 075°07'0 0.0
2018-Jul-10 13:32N 38°47' W 075°07'0 0.0
2018-Jul-10 13:30N 38°47' W 075°07'4 1.2
2018-Jul-10 10:01N 38°47' W 075°02'215.3
2018-Jul-10 09:52N 38°48' W 075°04'3 0.7
2018-Jul-10 06:21N 38°47' W 075°07'0 0.0
2018-Jul-10 02:54N 38°47' W 075°07'  
Track history (hours):
 
Tides and Currents Weather Stations Pressure Air Temp Water Temp Dewpoint Dewpoint Depression Visibility Wind Speed Wind Dir Waves Ship Positions

Pilot_jp_virden

Last reported at 2018-Jul-20 02:51 UTC. Time now 2018-Jul-20 03:06 UTC.
Position N 38°47' W 075°07'.

Length 16 m.

Type: Pilot. MMSI: 367699890.

Date/timePositionNaut miles runAvg speedWind from/ knotsBaromVisibWave heightAir tempDewpointWater temp
2018-Jul-20 02:51N 38°47' W 075°07'1 0.6
2018-Jul-20 00:19N 38°48' W 075°06'2 5.3
2018-Jul-19 23:59N 38°48' W 075°04'2 0.1
2018-Jul-19 07:28N 38°50' W 075°04'2 0.5
2018-Jul-19 03:21N 38°49' W 075°06'1 1.7
2018-Jul-19 02:54N 38°48' W 075°07'1 2.6
2018-Jul-19 02:23N 38°47' W 075°07'822.2
2018-Jul-19 02:00N 38°54' W 075°02'0 0.5
2018-Jul-19 01:30N 38°55' W 075°02'714.6
2018-Jul-19 01:00N 38°47' W 075°03'4 0.2
2018-Jul-18 08:53N 38°47' W 075°07'0 0.0
2018-Jul-18 08:25N 38°47' W 075°07'0 0.0
2018-Jul-18 06:08N 38°47' W 075°07'0 0.0
2018-Jul-18 05:58N 38°47' W 075°07'0 0.0
2018-Jul-18 05:28N 38°47' W 075°07'0 0.0
2018-Jul-18 04:46N 38°47' W 075°07'0 0.0
2018-Jul-17 11:45N 38°47' W 075°07'3 1.2
2018-Jul-17 08:56N 38°49' W 075°04'3 0.5
2018-Jul-17 03:34N 38°52' W 075°06'112.8
2018-Jul-17 03:30N 38°53' W 075°05'6 0.4
2018-Jul-16 12:01N 38°47' W 075°07'0 0.0
2018-Jul-16 11:58N 38°47' W 075°07'0 0.0
2018-Jul-16 11:30N 38°47' W 075°07'0 0.0
2018-Jul-16 10:58N 38°47' W 075°07'0 0.0
2018-Jul-16 10:30N 38°47' W 075°07'0 0.0
2018-Jul-16 09:54N 38°47' W 075°07'0 0.0
2018-Jul-16 07:57N 38°47' W 075°07'0 0.0
2018-Jul-15 13:08N 38°47' W 075°07'0 0.1
2018-Jul-15 13:00N 38°47' W 075°07'0 0.0
2018-Jul-15 12:31N 38°47' W 075°07'0 0.0
2018-Jul-15 12:00N 38°47' W 075°07'0 0.0
2018-Jul-15 11:31N 38°47' W 075°07'0 0.0
2018-Jul-15 11:01N 38°47' W 075°07'0 0.0
2018-Jul-15 10:04N 38°47' W 075°07'0 0.1
2018-Jul-15 09:59N 38°47' W 075°07'0 0.0
2018-Jul-15 09:29N 38°47' W 075°07'0 0.0
2018-Jul-15 07:36N 38°47' W 075°07'0 0.1
2018-Jul-15 07:30N 38°47' W 075°07'0 0.0
2018-Jul-15 06:59N 38°47' W 075°07'0 0.0
2018-Jul-15 06:30N 38°47' W 075°07'0 0.0
2018-Jul-15 06:00N 38°47' W 075°07'0 0.0
2018-Jul-15 05:30N 38°47' W 075°07'0 0.0
2018-Jul-15 04:59N 38°47' W 075°07'0 0.0
2018-Jul-15 04:30N 38°47' W 075°07'0 0.0
2018-Jul-15 04:00N 38°47' W 075°07'0 0.0
2018-Jul-15 03:29N 38°47' W 075°07'0 0.0
2018-Jul-15 02:47N 38°47' W 075°07'7 1.1
2018-Jul-14 20:30N 38°54' W 075°09'1224.2
2018-Jul-14 20:01N 39°05' W 075°14'1224.9
2018-Jul-14 19:31N 39°16' W 075°21'1224.4
2018-Jul-14 19:01N 39°25' W 075°31'1122.6
2018-Jul-14 18:31N 39°36' W 075°34'1020.8
2018-Jul-14 18:00N 39°46' W 075°29'1020.1
2018-Jul-14 17:30N 39°51' W 075°17'917.0
2018-Jul-14 17:00N 39°56' W 075°08'0 0.7
2018-Jul-14 16:30N 39°56' W 075°08'4 8.1
2018-Jul-14 16:00N 39°53' W 075°12'2 5.0
2018-Jul-14 15:30N 39°53' W 075°08'3 5.8
2018-Jul-14 15:00N 39°56' W 075°08'0 0.0
2018-Jul-14 14:30N 39°56' W 075°09'0 0.0
2018-Jul-14 13:30N 39°56' W 075°09'0 0.0
2018-Jul-14 13:00N 39°56' W 075°08'0 0.0
2018-Jul-14 12:30N 39°56' W 075°08'0 0.0
2018-Jul-14 12:00N 39°56' W 075°09'0 0.0
2018-Jul-14 11:30N 39°56' W 075°08'0 0.0
2018-Jul-14 11:00N 39°56' W 075°08'0 0.0
2018-Jul-14 10:30N 39°56' W 075°08'0 0.0
2018-Jul-14 10:01N 39°56' W 075°08'0 0.0
2018-Jul-14 09:30N 39°56' W 075°08'0 0.0
2018-Jul-14 09:01N 39°56' W 075°09'0 0.0
2018-Jul-14 08:31N 39°56' W 075°08'0 0.0
2018-Jul-14 08:00N 39°56' W 075°08'0 0.0
2018-Jul-14 07:30N 39°56' W 075°08'0 0.0
2018-Jul-14 07:00N 39°56' W 075°08'0 0.0
2018-Jul-14 06:30N 39°56' W 075°08'0 0.0
2018-Jul-14 06:01N 39°56' W 075°09'0 0.0
2018-Jul-14 05:30N 39°56' W 075°08'0 0.0
2018-Jul-14 05:00N 39°56' W 075°08'0 0.0
2018-Jul-14 04:30N 39°56' W 075°08'0 0.0
2018-Jul-14 04:00N 39°56' W 075°08'0 0.0
2018-Jul-14 03:31N 39°56' W 075°08'0 0.0
2018-Jul-14 03:01N 39°56' W 075°08'0 0.0
2018-Jul-14 02:30N 39°56' W 075°08'0 0.0
2018-Jul-14 02:00N 39°56' W 075°08'0 0.0
2018-Jul-14 01:30N 39°56' W 075°08'0 0.0
2018-Jul-14 01:00N 39°56' W 075°09'0 0.0
2018-Jul-14 00:30N 39°56' W 075°09'0 0.0
2018-Jul-14 00:00N 39°56' W 075°08'0 0.0
2018-Jul-13 23:31N 39°56' W 075°09'0 0.0
2018-Jul-13 23:00N 39°56' W 075°09'0 0.0
2018-Jul-13 22:30N 39°56' W 075°09'0 0.0
2018-Jul-13 22:00N 39°56' W 075°09'0 0.0
2018-Jul-13 21:30N 39°56' W 075°09'0 0.0
2018-Jul-13 21:00N 39°56' W 075°09'0 0.0
2018-Jul-13 20:30N 39°56' W 075°09'0 0.0
2018-Jul-13 20:00N 39°56' W 075°09'0 0.0
2018-Jul-13 19:30N 39°56' W 075°09'0 0.0
2018-Jul-13 19:00N 39°56' W 075°09'0 0.0
2018-Jul-13 18:30N 39°56' W 075°09'0 0.0
2018-Jul-13 18:00N 39°56' W 075°09'0 0.0
2018-Jul-13 17:30N 39°56' W 075°09'0 0.0
2018-Jul-13 17:00N 39°56' W 075°08'0 0.0
2018-Jul-13 16:30N 39°56' W 075°09'4 8.3
2018-Jul-13 16:00N 39°53' W 075°12'1020.0
2018-Jul-13 15:30N 39°49' W 075°24'1121.8
2018-Jul-13 15:00N 39°40' W 075°32'2322.7
2018-Jul-13 14:00N 39°18' W 075°24'1224.3
2018-Jul-13 13:30N 39°08' W 075°16'1224.3
2018-Jul-13 13:00N 38°56' W 075°11'917.4
2018-Jul-13 12:30N 38°48' W 075°10'0 0.0
2018-Jul-13 12:00N 38°48' W 075°10'0 0.0
2018-Jul-13 11:29N 38°48' W 075°10'0 0.0
2018-Jul-13 11:00N 38°48' W 075°10'0 0.0
2018-Jul-13 10:30N 38°48' W 075°10'0 0.0
2018-Jul-13 10:00N 38°48' W 075°10'0 0.0
2018-Jul-13 09:31N 38°48' W 075°10'0 0.0
2018-Jul-13 09:00N 38°48' W 075°10'0 0.0
2018-Jul-13 08:30N 38°48' W 075°10'0 0.0
2018-Jul-13 08:00N 38°48' W 075°10'0 0.0
2018-Jul-13 07:30N 38°48' W 075°10'0 0.0
2018-Jul-13 07:00N 38°48' W 075°10'0 0.0
2018-Jul-13 06:27N 38°48' W 075°10'0 0.0
2018-Jul-13 06:00N 38°48' W 075°10'0 0.0
2018-Jul-13 05:30N 38°48' W 075°10'0 0.0
2018-Jul-13 05:00N 38°48' W 075°10'0 0.0
2018-Jul-13 04:30N 38°48' W 075°10'0 0.0
2018-Jul-13 04:00N 38°48' W 075°10'0 0.0
2018-Jul-13 03:30N 38°48' W 075°10'0 0.0
2018-Jul-13 03:00N 38°48' W 075°10'0 0.0
2018-Jul-13 02:31N 38°48' W 075°10'0 0.0
2018-Jul-13 02:00N 38°48' W 075°10'0 0.0
2018-Jul-13 01:30N 38°48' W 075°10'0 0.0
2018-Jul-13 00:57N 38°48' W 075°10'0 0.0
2018-Jul-13 00:30N 38°48' W 075°10'0 0.0
2018-Jul-12 23:55N 38°48' W 075°10'2 0.1
2018-Jul-11 13:09N 38°47' W 075°07'0 0.1
2018-Jul-11 12:59N 38°47' W 075°07'0 0.0
2018-Jul-11 12:30N 38°47' W 075°07'0 0.0
2018-Jul-11 12:01N 38°47' W 075°07'0 0.0
2018-Jul-11 10:39N 38°47' W 075°07'0 0.0
2018-Jul-11 08:18N 38°47' W 075°07'0 0.0
2018-Jul-11 07:52N 38°47' W 075°07'0 0.0
2018-Jul-11 07:29N 38°47' W 075°07'0 0.0
2018-Jul-11 07:00N 38°47' W 075°07'0 0.0
2018-Jul-11 06:29N 38°47' W 075°07'0 0.0
2018-Jul-11 06:00N 38°47' W 075°07'0 0.0
2018-Jul-11 05:30N 38°47' W 075°07'0 0.0
2018-Jul-11 05:00N 38°47' W 075°07'0 0.0
2018-Jul-11 04:30N 38°47' W 075°07'0 0.0
2018-Jul-11 04:00N 38°47' W 075°07'0 0.0
2018-Jul-10 13:32N 38°47' W 075°07'0 0.0
2018-Jul-10 13:30N 38°47' W 075°07'4 1.2
2018-Jul-10 10:01N 38°47' W 075°02'215.3
2018-Jul-10 09:52N 38°48' W 075°04'3 0.7
2018-Jul-10 06:21N 38°47' W 075°07'0 0.0
2018-Jul-10 02:54N 38°47' W 075°07'  

Dump ship's entire track history